createdAt,value
2022-09-25T00:01:10.913Z,95446.63
2022-09-25T00:03:38.041Z,95447.84
2022-09-25T00:06:07.588Z,95442.47
2022-09-25T00:08:35.602Z,95441.22
2022-09-25T00:11:07.898Z,95442.47
2022-09-25T00:13:35.401Z,95436.72
2022-09-25T00:16:04.144Z,95446.88
2022-09-25T00:18:49.457Z,95455.03
2022-09-25T00:21:17.734Z,95450.22
2022-09-25T00:23:45.680Z,95448.50
2022-09-25T00:26:14.573Z,95444.34
2022-09-25T00:28:43.121Z,95442.69
2022-09-25T00:31:11.399Z,95444.50
2022-09-25T00:33:38.443Z,95432.16
2022-09-25T00:36:08.356Z,95433.84
2022-09-25T00:38:36.985Z,95432.59
2022-09-25T00:41:07.259Z,95434.19
2022-09-25T00:43:44.638Z,95432.59
2022-09-25T00:46:19.227Z,95418.66
2022-09-25T00:48:54.135Z,95425.59
2022-09-25T00:51:28.969Z,95419.50
2022-09-25T00:54:01.249Z,95416.34
2022-09-25T00:56:39.165Z,95404.81
2022-09-25T00:59:11.108Z,95435.50
2022-09-25T01:01:38.363Z,95434.72
2022-09-25T01:04:05.583Z,95432.13
2022-09-25T01:06:32.788Z,95429.69
2022-09-25T01:08:59.804Z,95421.22
2022-09-25T01:11:26.745Z,95418.91
2022-09-25T01:13:57.218Z,95418.63
2022-09-25T01:16:46.870Z,95415.72
2022-09-25T01:19:34.243Z,95417.34
2022-09-25T01:22:26.430Z,95413.38
2022-09-25T01:25:17.831Z,95416.03
2022-09-25T01:28:06.983Z,95420.28
2022-09-25T01:30:40.031Z,95419.50
2022-09-25T01:33:24.099Z,95420.78
2022-09-25T01:36:20.136Z,95408.16
2022-09-25T01:39:06.794Z,95423.44
2022-09-25T01:41:45.179Z,95426.34
2022-09-25T01:44:28.023Z,95424.47
2022-09-25T01:46:59.740Z,95422.09
2022-09-25T01:49:49.558Z,95428.19
2022-09-25T01:52:26.004Z,95431.34
2022-09-25T01:55:08.540Z,95426.59
2022-09-25T01:57:44.571Z,95425.00
2022-09-25T02:00:21.896Z,95427.69
2022-09-25T02:03:06.483Z,95425.28
2022-09-25T02:06:05.042Z,95425.00
2022-09-25T02:08:39.722Z,95417.91
2022-09-25T02:11:08.821Z,95414.47
2022-09-25T02:13:53.248Z,95405.75
2022-09-25T02:16:26.201Z,95404.44
2022-09-25T02:19:12.244Z,95419.69
2022-09-25T02:21:44.455Z,95428.19
2022-09-25T02:24:49.030Z,95422.88
2022-09-25T02:27:18.311Z,95430.22
2022-09-25T02:29:44.980Z,95425.28
2022-09-25T02:32:19.074Z,95436.06
2022-09-25T02:34:46.277Z,95431.28
2022-09-25T02:37:15.440Z,95440.72
2022-09-25T02:39:47.888Z,95430.13
2022-09-25T02:42:18.201Z,95435.22
2022-09-25T02:44:50.720Z,95443.41
2022-09-25T02:47:52.565Z,95427.34
2022-09-25T02:50:46.980Z,95431.78
2022-09-25T02:53:43.418Z,95438.63
2022-09-25T02:56:32.017Z,95431.25
2022-09-25T02:59:08.370Z,95437.53
2022-09-25T03:01:39.802Z,95434.97
2022-09-25T03:04:07.218Z,95434.91
2022-09-25T03:06:34.125Z,95431.72
2022-09-25T03:09:02.925Z,95427.06
2022-09-25T03:11:29.673Z,95428.34
2022-09-25T03:14:01.496Z,95433.88
2022-09-25T03:16:40.850Z,95438.34
2022-09-25T03:19:08.022Z,95427.75
2022-09-25T03:21:34.716Z,95421.16
2022-09-25T03:24:01.918Z,95422.28
2022-09-25T03:26:29.822Z,95427.00
2022-09-25T03:28:57.395Z,95419.41
2022-09-25T03:31:24.345Z,95424.59
2022-09-25T03:33:51.115Z,95415.66
2022-09-25T03:36:23.776Z,95413.25
2022-09-25T03:38:57.962Z,95413.31
2022-09-25T03:41:28.049Z,95419.94
2022-09-25T03:43:56.666Z,95423.25
2022-09-25T03:46:29.061Z,95425.88
2022-09-25T03:48:57.130Z,95426.41
2022-09-25T03:51:25.329Z,95427.75
2022-09-25T03:53:52.238Z,95427.22
2022-09-25T03:56:22.863Z,95424.28
2022-09-25T03:58:51.141Z,95435.88
2022-09-25T04:01:21.977Z,95400.75
2022-09-25T04:03:50.581Z,95435.81
2022-09-25T04:06:20.116Z,95432.69
2022-09-25T04:08:48.200Z,95435.59
2022-09-25T04:11:16.168Z,95440.00
2022-09-25T04:13:44.145Z,95449.72
2022-09-25T04:16:12.223Z,95452.84
2022-09-25T04:18:41.839Z,95447.19
2022-09-25T04:21:10.667Z,95434.97
2022-09-25T04:23:38.696Z,95441.13
2022-09-25T04:26:05.904Z,95438.44
2022-09-25T04:28:33.168Z,95437.97
2022-09-25T04:31:00.633Z,95454.03
2022-09-25T04:33:45.794Z,95455.84
2022-09-25T04:36:12.962Z,95452.81
2022-09-25T04:38:39.744Z,95442.47
2022-09-25T04:41:08.144Z,95439.84
2022-09-25T04:43:35.361Z,95452.50
2022-09-25T04:46:03.961Z,95450.78
2022-09-25T04:48:31.578Z,95447.03
2022-09-25T04:50:58.590Z,95438.53
2022-09-25T04:53:27.234Z,95427.31
2022-09-25T04:55:55.227Z,95436.16
2022-09-25T04:58:22.259Z,95443.75
2022-09-25T05:00:49.798Z,95440.31
2022-09-25T05:03:16.800Z,95444.41
2022-09-25T05:05:44.168Z,95444.72
2022-09-25T05:08:11.603Z,95457.25
2022-09-25T05:10:39.815Z,95453.25
2022-09-25T05:13:09.195Z,95450.59
2022-09-25T05:15:36.367Z,95450.06
2022-09-25T05:18:04.505Z,95447.53
2022-09-25T05:20:31.372Z,95445.47
2022-09-25T05:22:58.558Z,95452.84
2022-09-25T05:25:26.744Z,95452.31
2022-09-25T05:27:55.940Z,95442.31
2022-09-25T05:30:23.157Z,95442.09
2022-09-25T05:32:51.472Z,95439.19
2022-09-25T05:35:22.505Z,95431.72
2022-09-25T05:37:51.328Z,95437.59
2022-09-25T05:40:21.088Z,95438.88
2022-09-25T05:42:49.172Z,95444.84
2022-09-25T05:45:17.499Z,95442.91
2022-09-25T05:47:44.858Z,95442.91
2022-09-25T05:50:14.207Z,95447.09
2022-09-25T05:52:41.208Z,95448.19
2022-09-25T05:55:09.655Z,95449.81
2022-09-25T05:57:37.837Z,95453.47
2022-09-25T06:00:09.087Z,95455.75
2022-09-25T06:02:41.564Z,95450.97
2022-09-25T06:05:09.118Z,95445.00
2022-09-25T06:07:36.741Z,95445.03
2022-09-25T06:10:03.844Z,95449.09
2022-09-25T06:12:31.386Z,95458.91
2022-09-25T06:14:58.267Z,95446.53
2022-09-25T06:17:25.280Z,95447.59
2022-09-25T06:19:52.039Z,95432.91
2022-09-25T06:22:18.886Z,95439.22
2022-09-25T06:24:45.951Z,95441.34
2022-09-25T06:27:12.699Z,95446.09
2022-09-25T06:29:39.335Z,95437.06
2022-09-25T06:32:06.203Z,95448.75
2022-09-25T06:34:32.918Z,95458.22
2022-09-25T06:37:03.063Z,95443.44
2022-09-25T06:39:33.237Z,95449.59
2022-09-25T06:42:00.166Z,95447.16
2022-09-25T06:44:28.325Z,95452.97
2022-09-25T06:46:55.290Z,95449.28
2022-09-25T06:49:23.354Z,95443.44
2022-09-25T06:51:51.275Z,95441.78
2022-09-25T06:54:18.559Z,95441.31
2022-09-25T06:56:49.496Z,95436.19
2022-09-25T06:59:17.086Z,95441.84
2022-09-25T07:01:44.075Z,95428.94
2022-09-25T07:04:10.822Z,95429.13
2022-09-25T07:06:37.965Z,95441.22
2022-09-25T07:09:04.920Z,95445.00
2022-09-25T07:11:33.187Z,95453.06
2022-09-25T07:14:00.025Z,95449.44
2022-09-25T07:16:29.962Z,95461.34
2022-09-25T07:19:00.508Z,95453.66
2022-09-25T07:21:30.649Z,95458.03
2022-09-25T07:23:59.001Z,95458.19
2022-09-25T07:26:33.888Z,95465.53
2022-09-25T07:29:04.320Z,95451.94
2022-09-25T07:31:33.398Z,95462.69
2022-09-25T07:34:06.015Z,95466.09
2022-09-25T07:36:33.237Z,95459.34
2022-09-25T07:38:59.960Z,95456.44
2022-09-25T07:41:27.204Z,95445.00
2022-09-25T07:44:24.313Z,95430.16
2022-09-25T07:46:46.580Z,95433.06
2022-09-25T07:49:14.098Z,95427.41
2022-09-25T07:51:41.201Z,95417.34
2022-09-25T07:54:08.376Z,95404.00
2022-09-25T07:56:35.510Z,95407.16
2022-09-25T07:59:02.336Z,95393.88
2022-09-25T08:01:29.521Z,95398.19
2022-09-25T08:03:56.256Z,95396.94
2022-09-25T08:06:23.169Z,95399.94
2022-09-25T08:08:50.027Z,95402.25
2022-09-25T08:11:18.335Z,95402.91
2022-09-25T08:13:45.818Z,95396.09
2022-09-25T08:16:16.820Z,95411.94
2022-09-25T08:18:46.253Z,95395.03
2022-09-25T08:21:14.603Z,95392.78
2022-09-25T08:23:47.813Z,95383.72
2022-09-25T08:26:17.035Z,95384.00
2022-09-25T08:28:44.687Z,95375.81
2022-09-25T08:31:13.285Z,95372.88
2022-09-25T08:33:44.963Z,95364.63
2022-09-25T08:36:11.968Z,95360.91
2022-09-25T08:38:38.614Z,95352.75
2022-09-25T08:41:25.657Z,95357.69
2022-09-25T08:44:24.065Z,95357.38
2022-09-25T08:47:24.013Z,95348.78
2022-09-25T08:50:13.908Z,95357.72
2022-09-25T08:52:45.169Z,95352.13
2022-09-25T08:55:50.311Z,95351.91
2022-09-25T08:58:25.975Z,95351.00
2022-09-25T09:00:55.042Z,95339.50
2022-09-25T09:03:25.691Z,95352.28
2022-09-25T09:06:01.135Z,95344.63
2022-09-25T09:08:31.457Z,95341.59
2022-09-25T09:11:03.426Z,95332.38
2022-09-25T09:13:36.908Z,95331.75
2022-09-25T09:16:09.228Z,95330.31
2022-09-25T09:18:41.096Z,95312.56
2022-09-25T09:21:22.713Z,95316.06
2022-09-25T09:23:49.592Z,95309.16
2022-09-25T09:26:20.637Z,95302.09
2022-09-25T09:28:48.453Z,95293.47
2022-09-25T09:31:34.107Z,95300.19
2022-09-25T09:34:53.536Z,95296.41
2022-09-25T09:37:45.876Z,95299.63
2022-09-25T09:40:25.852Z,95281.28
2022-09-25T09:43:04.260Z,95290.03
2022-09-25T09:45:43.495Z,95293.97
2022-09-25T09:48:13.228Z,95290.69
2022-09-25T09:50:46.141Z,95289.47
2022-09-25T09:53:18.487Z,95280.25
2022-09-25T09:55:50.758Z,95276.56
2022-09-25T09:58:50.327Z,95273.50
2022-09-25T10:04:11.180Z,95275.53
2022-09-25T10:06:43.406Z,95264.53
2022-09-25T10:09:15.289Z,95267.38
2022-09-25T10:11:45.659Z,95263.50
2022-09-25T10:14:21.411Z,95261.38
2022-09-25T10:16:51.247Z,95260.75
2022-09-25T10:19:22.194Z,95249.75
2022-09-25T10:22:07.334Z,95254.28
2022-09-25T10:24:55.218Z,95246.34
2022-09-25T10:27:24.807Z,95239.25
2022-09-25T10:30:09.655Z,95244.00
2022-09-25T10:32:56.464Z,95236.13
2022-09-25T10:35:39.153Z,95231.19
2022-09-25T10:38:17.418Z,95229.25
2022-09-25T10:40:47.683Z,95225.28
2022-09-25T10:43:23.559Z,95213.25
2022-09-25T10:46:05.829Z,95214.94
2022-09-25T10:48:56.644Z,95215.16
2022-09-25T10:51:24.575Z,95222.19
2022-09-25T10:54:12.989Z,95222.41
2022-09-25T10:56:40.257Z,95199.66
2022-09-25T10:59:19.754Z,95209.38
2022-09-25T11:01:49.373Z,95200.78
2022-09-25T11:04:28.119Z,95205.47
2022-09-25T11:07:01.951Z,95202.44
2022-09-25T11:09:32.480Z,95195.81
2022-09-25T11:12:22.175Z,95181.22
2022-09-25T11:15:04.984Z,95185.94
2022-09-25T11:17:38.224Z,95188.88
2022-09-25T11:20:21.136Z,95181.63
2022-09-25T11:23:04.621Z,95183.00
2022-09-25T11:25:46.844Z,95187.66
2022-09-25T11:28:18.496Z,95184.25
2022-09-25T11:30:54.714Z,95178.34
2022-09-25T11:33:42.238Z,95181.75
2022-09-25T11:36:27.549Z,95166.47
2022-09-25T11:39:15.158Z,95172.63
2022-09-25T11:41:46.998Z,95178.19
2022-09-25T11:44:37.122Z,95160.97
2022-09-25T11:47:06.635Z,95159.19
2022-09-25T11:49:36.790Z,95151.38
2022-09-25T11:52:29.443Z,95148.75
2022-09-25T11:55:15.268Z,95138.81
2022-09-25T11:58:01.077Z,95142.88
2022-09-25T12:00:28.589Z,95136.53
2022-09-25T12:03:16.888Z,95137.84
2022-09-25T12:06:21.769Z,95136.00
2022-09-25T12:09:10.366Z,95137.13
2022-09-25T12:12:08.760Z,95121.19
2022-09-25T12:14:47.356Z,95124.59
2022-09-25T12:17:49.459Z,95113.44
2022-09-25T12:20:28.258Z,95112.66
2022-09-25T12:23:01.744Z,95111.06
2022-09-25T12:25:40.722Z,95106.00
2022-09-25T12:28:25.862Z,95099.03
2022-09-25T12:31:02.279Z,95095.63
2022-09-25T12:34:08.957Z,95088.53
2022-09-25T12:36:42.878Z,95093.13
2022-09-25T12:39:37.321Z,95089.06
2022-09-25T12:42:24.110Z,95085.38
2022-09-25T12:45:03.212Z,95089.72
2022-09-25T12:47:37.674Z,95076.09
2022-09-25T12:50:30.453Z,95075.50
2022-09-25T12:53:15.164Z,95066.38
2022-09-25T12:55:50.739Z,95058.22
2022-09-25T12:58:25.974Z,95065.59
2022-09-25T13:00:59.707Z,95062.22
2022-09-25T13:04:10.646Z,95052.56
2022-09-25T13:07:04.032Z,95047.16
2022-09-25T13:09:36.903Z,95046.25
2022-09-25T13:12:15.236Z,95026.91
2022-09-25T13:14:48.617Z,95023.53
2022-09-25T13:17:16.054Z,95014.59
2022-09-25T13:19:42.870Z,95025.00
2022-09-25T13:22:27.053Z,95024.31
2022-09-25T13:25:05.351Z,95011.16
2022-09-25T13:27:42.727Z,95008.38
2022-09-25T13:30:20.435Z,94995.28
2022-09-25T13:32:53.096Z,95016.94
2022-09-25T13:35:22.279Z,95014.66
2022-09-25T13:37:52.727Z,95013.06
2022-09-25T13:40:41.409Z,95013.03
2022-09-25T13:43:25.255Z,95011.13
2022-09-25T13:46:17.969Z,95005.31
2022-09-25T13:48:44.882Z,94981.56
2022-09-25T13:51:20.233Z,94991.00
2022-09-25T13:54:23.974Z,94986.06
2022-09-25T13:56:53.599Z,94982.13
2022-09-25T13:59:23.215Z,94985.22
2022-09-25T14:01:54.075Z,94989.09
2022-09-25T14:04:28.226Z,94985.88
2022-09-25T14:07:26.676Z,94970.50
2022-09-25T14:09:59.068Z,94986.41
2022-09-25T14:12:48.095Z,94982.53
2022-09-25T14:15:37.594Z,94993.59
2022-09-25T14:18:09.382Z,94977.75
2022-09-25T14:20:40.855Z,94983.19
2022-09-25T14:23:24.203Z,94981.47
2022-09-25T14:26:07.357Z,94976.56
2022-09-25T14:28:46.234Z,94971.81
2022-09-25T14:31:37.669Z,94980.72
2022-09-25T14:34:30.034Z,94983.69
2022-09-25T14:37:01.653Z,94975.16
2022-09-25T14:39:45.121Z,94984.03
2022-09-25T14:42:39.468Z,94981.72
2022-09-25T14:45:12.631Z,94982.13
2022-09-25T14:47:43.622Z,94977.44
2022-09-25T14:50:28.890Z,94974.00
2022-09-25T14:53:00.013Z,94961.25
2022-09-25T14:55:34.977Z,94972.03
2022-09-25T14:58:02.799Z,94972.41
2022-09-25T15:00:30.084Z,94975.78
2022-09-25T15:02:58.433Z,94972.59
2022-09-25T15:05:27.869Z,94971.75
2022-09-25T15:07:59.403Z,94979.53
2022-09-25T15:10:41.332Z,94977.91
2022-09-25T15:13:15.906Z,94986.28
2022-09-25T15:16:06.370Z,94984.56
2022-09-25T15:18:37.926Z,94989.38
2022-09-25T15:21:08.786Z,94982.56
2022-09-25T15:23:38.529Z,94982.31
2022-09-25T15:26:05.481Z,94973.28
2022-09-25T15:28:40.101Z,94978.91
2022-09-25T15:31:07.427Z,94980.03
2022-09-25T15:33:37.343Z,94981.91
2022-09-25T15:36:24.549Z,94981.34
2022-09-25T15:39:00.841Z,94983.34
2022-09-25T15:41:29.339Z,94982.31
2022-09-25T15:44:26.132Z,94987.38
2022-09-25T15:47:02.214Z,94988.91
2022-09-25T15:49:41.283Z,94987.06
2022-09-25T15:52:33.704Z,94990.13
2022-09-25T15:55:14.649Z,94986.94
2022-09-25T15:57:42.276Z,94987.28
2022-09-25T16:00:36.783Z,94985.56
2022-09-25T16:03:48.538Z,94977.59
2022-09-25T16:06:16.939Z,94975.66
2022-09-25T16:08:44.162Z,94975.38
2022-09-25T16:11:16.822Z,94969.34
2022-09-25T16:13:47.904Z,94977.09
2022-09-25T16:16:24.179Z,94963.16
2022-09-25T16:18:54.358Z,94969.94
2022-09-25T16:21:28.942Z,94977.34
2022-09-25T16:24:02.859Z,94979.19
2022-09-25T16:26:39.318Z,94985.84
2022-09-25T16:29:11.974Z,94982.63
2022-09-25T16:31:41.332Z,94983.31
2022-09-25T16:34:19.482Z,94974.78
2022-09-25T16:36:48.582Z,94981.34
2022-09-25T16:39:25.636Z,94991.53
2022-09-25T16:41:53.241Z,94972.66
2022-09-25T16:44:35.791Z,94992.44
2022-09-25T16:47:21.609Z,94993.91
2022-09-25T16:49:49.445Z,94996.47
2022-09-25T16:52:23.373Z,94986.47
2022-09-25T16:54:53.415Z,94995.13
2022-09-25T16:57:25.401Z,94987.03
2022-09-25T16:59:52.653Z,94997.66
2022-09-25T17:02:37.262Z,94986.91
2022-09-25T17:05:08.052Z,95003.59
2022-09-25T17:07:35.028Z,95005.03
2022-09-25T17:10:02.341Z,94991.63
2022-09-25T17:12:31.517Z,95004.28
2022-09-25T17:14:59.340Z,95014.41
2022-09-25T17:17:26.389Z,95005.69
2022-09-25T17:19:53.191Z,95009.19
2022-09-25T17:22:20.169Z,95014.94
2022-09-25T17:24:46.893Z,95012.13
2022-09-25T17:27:16.604Z,95014.94
2022-09-25T17:29:44.055Z,95012.97
2022-09-25T17:32:13.736Z,95006.28
2022-09-25T17:34:41.216Z,95003.34
2022-09-25T17:37:08.265Z,95008.44
2022-09-25T17:39:35.041Z,95006.34
2022-09-25T17:42:02.825Z,95019.66
2022-09-25T17:44:29.879Z,95027.94
2022-09-25T17:46:57.643Z,95024.94
2022-09-25T17:49:25.550Z,95012.34
2022-09-25T17:51:52.878Z,95028.97
2022-09-25T17:54:20.045Z,95036.56
2022-09-25T17:56:47.056Z,95034.31
2022-09-25T17:59:14.769Z,95039.72
2022-09-25T18:01:41.688Z,95056.97
2022-09-25T18:04:23.677Z,95065.22
2022-09-25T18:06:51.376Z,95066.09
2022-09-25T18:09:18.365Z,95077.03
2022-09-25T18:11:45.405Z,95075.56
2022-09-25T18:14:14.877Z,95087.97
2022-09-25T18:16:43.797Z,95078.81
2022-09-25T18:19:34.571Z,95073.69
2022-09-25T18:22:17.588Z,95075.91
2022-09-25T18:24:46.066Z,95070.09
2022-09-25T18:27:13.670Z,95070.88
2022-09-25T18:29:40.730Z,95067.44
2022-09-25T18:32:08.309Z,95068.34
2022-09-25T18:34:35.215Z,95065.88
2022-09-25T18:37:02.073Z,95080.69
2022-09-25T18:39:29.606Z,95087.81
2022-09-25T18:41:56.466Z,95084.19
2022-09-25T18:44:23.627Z,95084.91
2022-09-25T18:46:51.778Z,95082.09
2022-09-25T18:49:19.204Z,95079.78
2022-09-25T18:51:46.118Z,95086.03
2022-09-25T18:54:14.427Z,95085.84
2022-09-25T18:56:41.653Z,95088.88
2022-09-25T18:59:08.569Z,95092.28
2022-09-25T19:01:36.271Z,95080.78
2022-09-25T19:04:04.074Z,95080.50
2022-09-25T19:06:30.855Z,95079.78
2022-09-25T19:08:58.174Z,95090.84
2022-09-25T19:11:26.959Z,95094.34
2022-09-25T19:13:54.205Z,95103.59
2022-09-25T19:16:21.806Z,95093.97
2022-09-25T19:18:50.363Z,95088.31
2022-09-25T19:21:22.286Z,95089.72
2022-09-25T19:23:49.901Z,95086.53
2022-09-25T19:26:20.972Z,95085.50
2022-09-25T19:28:48.343Z,95086.59
2022-09-25T19:31:18.008Z,95090.72
2022-09-25T19:33:45.185Z,95079.75
2022-09-25T19:36:19.448Z,95082.88
2022-09-25T19:38:47.024Z,95096.94
2022-09-25T19:41:16.520Z,95092.19
2022-09-25T19:43:43.936Z,95088.44
2022-09-25T19:46:17.359Z,95089.44
2022-09-25T19:48:44.920Z,95085.22
2022-09-25T19:51:11.789Z,95083.06
2022-09-25T19:53:40.613Z,95082.56
2022-09-25T19:56:08.794Z,95078.06
2022-09-25T19:58:38.351Z,95089.47
2022-09-25T20:01:15.663Z,95089.81
2022-09-25T20:03:43.099Z,95102.16
2022-09-25T20:06:11.133Z,95100.56
2022-09-25T20:08:38.888Z,95090.19
2022-09-25T20:11:32.691Z,95087.50
2022-09-25T20:14:01.975Z,95093.72
2022-09-25T20:16:29.959Z,95087.31
2022-09-25T20:19:02.781Z,95086.53
2022-09-25T20:21:32.830Z,95094.84
2022-09-25T20:24:01.975Z,95089.97
2022-09-25T20:26:30.194Z,95095.00
2022-09-25T20:29:02.447Z,95100.94
2022-09-25T20:31:32.812Z,95100.63
2022-09-25T20:33:59.629Z,95098.06
2022-09-25T20:36:26.689Z,95098.91
2022-09-25T20:38:56.313Z,95098.19
2022-09-25T20:41:24.850Z,95099.53
2022-09-25T20:43:55.096Z,95099.84
2022-09-25T20:46:23.938Z,95077.13
2022-09-25T20:48:52.794Z,95095.00
2022-09-25T20:51:23.984Z,95087.81
2022-09-25T20:53:52.313Z,95096.41
2022-09-25T20:56:19.715Z,95093.28
2022-09-25T20:58:52.189Z,95083.41
2022-09-25T21:01:22.862Z,95099.53
2022-09-25T21:03:50.960Z,95076.53
2022-09-25T21:06:20.732Z,95104.88
2022-09-25T21:08:51.649Z,95094.38
2022-09-25T21:11:18.646Z,95097.81
2022-09-25T21:13:50.380Z,95085.91
2022-09-25T21:16:18.260Z,95080.44
2022-09-25T21:18:45.124Z,95085.91
2022-09-25T21:21:14.264Z,95075.25
2022-09-25T21:23:43.663Z,95081.22
2022-09-25T21:26:13.829Z,95083.72
2022-09-25T21:28:46.202Z,95082.16
2022-09-25T21:31:16.344Z,95076.81
2022-09-25T21:33:43.770Z,95072.69
2022-09-25T21:36:13.293Z,95080.72
2022-09-25T21:38:40.000Z,95076.22
2022-09-25T21:41:08.899Z,95071.34
2022-09-25T21:43:36.091Z,95073.13
2022-09-25T21:46:09.232Z,95063.63
2022-09-25T21:48:37.318Z,95051.91
2022-09-25T21:51:05.817Z,95056.84
2022-09-25T21:53:33.960Z,95051.63
2022-09-25T21:56:02.134Z,95048.22
2022-09-25T21:58:29.806Z,95047.97
2022-09-25T22:01:10.292Z,95053.19
2022-09-25T22:03:41.373Z,95045.72
2022-09-25T22:06:14.021Z,95048.09
2022-09-25T22:08:44.022Z,95045.16
2022-09-25T22:11:12.007Z,95046.50
2022-09-25T22:13:41.793Z,95058.25
2022-09-25T22:16:18.154Z,95054.63
2022-09-25T22:18:56.905Z,95042.91
2022-09-25T22:21:26.168Z,95055.28
2022-09-25T22:23:53.082Z,95047.88
2022-09-25T22:26:20.480Z,95052.84
2022-09-25T22:28:48.001Z,95056.69
2022-09-25T22:31:23.450Z,95058.03
2022-09-25T22:33:54.361Z,95063.22
2022-09-25T22:36:21.753Z,95061.09
2022-09-25T22:38:48.466Z,95061.78
2022-09-25T22:41:16.276Z,95062.97
2022-09-25T22:43:43.257Z,95065.75
2022-09-25T22:46:11.765Z,95080.09
2022-09-25T22:48:40.769Z,95070.28
2022-09-25T22:51:13.036Z,95062.41
2022-09-25T22:53:40.632Z,95071.34
2022-09-25T22:56:16.399Z,95070.56
2022-09-25T22:58:48.034Z,95068.59
2022-09-25T23:01:18.688Z,95078.66
2022-09-25T23:03:45.555Z,95086.56
2022-09-25T23:06:12.346Z,95079.81
2022-09-25T23:08:39.146Z,95072.81
2022-09-25T23:11:08.285Z,95060.63
2022-09-25T23:13:36.001Z,95075.66
2022-09-25T23:16:07.534Z,95075.31
2022-09-25T23:18:37.594Z,95067.69
2022-09-25T23:21:05.167Z,95066.94
2022-09-25T23:23:32.489Z,95062.13
2022-09-25T23:26:06.326Z,95051.63
2022-09-25T23:28:35.431Z,95051.88
2022-09-25T23:31:10.782Z,95050.75
2022-09-25T23:33:39.644Z,95057.19
2022-09-25T23:36:09.304Z,95054.41
2022-09-25T23:38:36.978Z,95069.19
2022-09-25T23:41:13.953Z,95065.06
2022-09-25T23:43:40.873Z,95063.22
2022-09-25T23:46:08.018Z,95042.91
2022-09-25T23:48:35.112Z,95039.41
2022-09-25T23:51:01.975Z,95057.84
2022-09-25T23:53:28.728Z,95054.66
2022-09-25T23:55:55.763Z,95049.81
2022-09-25T23:58:22.562Z,95048.41
